Lambert House, Cayman Islands

10:31 PM EST on July 20, 2017 (GMT -0500)
Sandalwood Crescent | | Change Station

Elev 19 ft 19.28 °N, 81.39 °W | Updated 3 minutes ago

Clear
Clear
86.0 °F
Feels Like 99 °F
N
4.3
Wind Variable Wind from North
Gusts 7.5 mph

Today
High -- | Low -- °F
--% Chance of Precip.
Yesterday
High -- | Low -- °F
Precip. -- in
Pressure 30.04 in
Visibility 6.2 miles
Clouds Few 1800 ft
Heat Index 99 °F
Dew Point 79 °F
Humidity 79%
Rainfall 0.00 in
Snow Depth Not available.
5:58 AM 7:05 PM
Waning Crescent, 7% visible
METAR MWCR 210300Z 06010KT 9999 FEW018 30/26 Q1017
Pressure 30.04 in
Visibility 6.2 miles
Clouds Few 1800 ft
Heat Index 99 °F
Dew Point 79 °F
Humidity 79%
Rainfall 0.00 in
Snow Depth Not available.
5:58 AM 7:05 PM
Waning Crescent, 7% visible
METAR MWCR 210300Z 06010KT 9999 FEW018 30/26 Q1017

Get Severe Weather Alerts

Thanks for signing up!

Be on the lookout for a verification email in your inbox.

You'll start receiving the daily forecast at 6 AM.

×

10-Day Weather Forecast

No radar image for this location.
×

Almanac

Astronomy

Jul. 20, 2017 Rise Set
Actual Time
Civil Twilight
Nautical Twilight
Astronomical Twilight
Moon
Length of Visible Light
Length of Day
Tomorrow will be .
, % of the Moon is Illuminated

Today's Extremes

Country Highs Country Lows

Community

WunderPhotos

Category 6

Welcome to Category 6. This is the collective home for Weather Underground's featured writeups by Dr. Jeff Masters (right), Bob Henson (left), Chris Burt, and other regular contributors.

Nearby

Air Quality

  Air Quality AQ Index Pollutant
Not available.

Snow Depth

Station Depth Elevation

Earthquake Activity

City Distance Mag. Time & Date
Minimum magnitude displayed is 2.5.

Coastal Water Temperatures

Place Temperature

Stations

Nearby Weather Stations

Station Location Temp. Windchill Dew Point Humidity Wind Precip. Elev Updated Type